sensor_id;sensor_type;location;lat;lon;timestamp;P1;durP1;ratioP1;P2;durP2;ratioP2
11113;SDS011;5610;52.154;9.198;2022-12-24T00:02:07;18.33;;;16.20;;
11113;SDS011;5610;52.154;9.198;2022-12-24T00:04:52;18.23;;;15.83;;
11113;SDS011;5610;52.154;9.198;2022-12-24T00:07:37;22.23;;;16.33;;
11113;SDS011;5610;52.154;9.198;2022-12-24T00:10:23;19.70;;;16.70;;
11113;SDS011;5610;52.154;9.198;2022-12-24T00:13:08;21.60;;;17.30;;
11113;SDS011;5610;52.154;9.198;2022-12-24T00:15:53;16.83;;;15.10;;
11113;SDS011;5610;52.154;9.198;2022-12-24T00:18:40;19.47;;;16.80;;
11113;SDS011;5610;52.154;9.198;2022-12-24T00:21:26;19.00;;;16.73;;
11113;SDS011;5610;52.154;9.198;2022-12-24T00:24:11;19.60;;;15.73;;
11113;SDS011;5610;52.154;9.198;2022-12-24T00:26:56;21.63;;;15.00;;
11113;SDS011;5610;52.154;9.198;2022-12-24T00:29:42;161.63;;;26.37;;
11113;SDS011;5610;52.154;9.198;2022-12-24T00:32:27;18.70;;;16.37;;
11113;SDS011;5610;52.154;9.198;2022-12-24T00:35:14;22.90;;;16.90;;
11113;SDS011;5610;52.154;9.198;2022-12-24T00:37:59;20.00;;;15.50;;
11113;SDS011;5610;52.154;9.198;2022-12-24T00:40:46;17.83;;;14.33;;
11113;SDS011;5610;52.154;9.198;2022-12-24T00:43:32;12.57;;;10.07;;
11113;SDS011;5610;52.154;9.198;2022-12-24T00:46:17;13.20;;;7.40;;
11113;SDS011;5610;52.154;9.198;2022-12-24T00:49:02;13.10;;;6.57;;
11113;SDS011;5610;52.154;9.198;2022-12-24T00:51:49;11.33;;;5.73;;
11113;SDS011;5610;52.154;9.198;2022-12-24T00:54:35;8.53;;;5.23;;
11113;SDS011;5610;52.154;9.198;2022-12-24T00:57:20;9.20;;;5.90;;
11113;SDS011;5610;52.154;9.198;2022-12-24T01:00:06;13.10;;;5.30;;
11113;SDS011;5610;52.154;9.198;2022-12-24T01:02:52;10.47;;;4.87;;
11113;SDS011;5610;52.154;9.198;2022-12-24T01:05:38;9.67;;;4.90;;
11113;SDS011;5610;52.154;9.198;2022-12-24T01:08:24;10.53;;;4.90;;
11113;SDS011;5610;52.154;9.198;2022-12-24T01:11:10;4.40;;;3.77;;
11113;SDS011;5610;52.154;9.198;2022-12-24T01:13:56;6.47;;;3.20;;
11113;SDS011;5610;52.154;9.198;2022-12-24T01:16:41;9.67;;;3.57;;
11113;SDS011;5610;52.154;9.198;2022-12-24T01:19:27;3.90;;;3.50;;
11113;SDS011;5610;52.154;9.198;2022-12-24T01:22:12;6.20;;;2.97;;
11113;SDS011;5610;52.154;9.198;2022-12-24T01:24:59;4.57;;;2.60;;
11113;SDS011;5610;52.154;9.198;2022-12-24T01:27:44;8.97;;;3.47;;
11113;SDS011;5610;52.154;9.198;2022-12-24T01:30:30;8.87;;;3.23;;
11113;SDS011;5610;52.154;9.198;2022-12-24T01:33:15;6.93;;;3.60;;
11113;SDS011;5610;52.154;9.198;2022-12-24T01:36:01;7.30;;;2.87;;
11113;SDS011;5610;52.154;9.198;2022-12-24T01:38:46;5.90;;;3.37;;
11113;SDS011;5610;52.154;9.198;2022-12-24T01:41:33;9.03;;;3.57;;
11113;SDS011;5610;52.154;9.198;2022-12-24T01:44:39;8.70;;;3.50;;
11113;SDS011;5610;52.154;9.198;2022-12-24T01:47:26;7.17;;;3.40;;
11113;SDS011;5610;52.154;9.198;2022-12-24T01:50:14;6.67;;;3.63;;
11113;SDS011;5610;52.154;9.198;2022-12-24T01:53:01;7.03;;;3.40;;
11113;SDS011;5610;52.154;9.198;2022-12-24T01:55:49;12.00;;;3.13;;
11113;SDS011;5610;52.154;9.198;2022-12-24T01:58:36;5.77;;;3.33;;
11113;SDS011;5610;52.154;9.198;2022-12-24T02:01:27;11.60;;;3.13;;
11113;SDS011;5610;52.154;9.198;2022-12-24T02:04:15;7.67;;;3.20;;
11113;SDS011;5610;52.154;9.198;2022-12-24T02:07:06;6.37;;;3.43;;
11113;SDS011;5610;52.154;9.198;2022-12-24T02:09:52;10.27;;;3.23;;
11113;SDS011;5610;52.154;9.198;2022-12-24T02:12:40;7.30;;;3.53;;
11113;SDS011;5610;52.154;9.198;2022-12-24T02:15:31;11.50;;;4.23;;
11113;SDS011;5610;52.154;9.198;2022-12-24T02:18:25;6.73;;;3.17;;
11113;SDS011;5610;52.154;9.198;2022-12-24T02:21:30;7.67;;;3.40;;
11113;SDS011;5610;52.154;9.198;2022-12-24T02:24:48;9.57;;;3.40;;
11113;SDS011;5610;52.154;9.198;2022-12-24T02:27:48;8.23;;;3.20;;
11113;SDS011;5610;52.154;9.198;2022-12-24T02:30:42;10.83;;;3.20;;
11113;SDS011;5610;52.154;9.198;2022-12-24T02:33:33;11.20;;;3.53;;
11113;SDS011;5610;52.154;9.198;2022-12-24T02:36:24;8.73;;;3.57;;
11113;SDS011;5610;52.154;9.198;2022-12-24T02:39:15;12.30;;;3.17;;
11113;SDS011;5610;52.154;9.198;2022-12-24T02:42:06;11.80;;;3.80;;
11113;SDS011;5610;52.154;9.198;2022-12-24T02:44:53;6.40;;;2.77;;
11113;SDS011;5610;52.154;9.198;2022-12-24T02:47:44;12.23;;;4.13;;
11113;SDS011;5610;52.154;9.198;2022-12-24T02:50:30;7.63;;;3.53;;
11113;SDS011;5610;52.154;9.198;2022-12-24T02:53:15;11.20;;;3.77;;
11113;SDS011;5610;52.154;9.198;2022-12-24T02:59:21;11.90;;;4.33;;
11113;SDS011;5610;52.154;9.198;2022-12-24T03:02:18;16.20;;;3.93;;
11113;SDS011;5610;52.154;9.198;2022-12-24T03:05:16;15.33;;;5.10;;
11113;SDS011;5610;52.154;9.198;2022-12-24T03:08:09;11.37;;;5.13;;
11113;SDS011;5610;52.154;9.198;2022-12-24T03:11:01;10.97;;;4.40;;
11113;SDS011;5610;52.154;9.198;2022-12-24T03:13:51;16.83;;;4.60;;
11113;SDS011;5610;52.154;9.198;2022-12-24T03:16:40;11.60;;;4.90;;
11113;SDS011;5610;52.154;9.198;2022-12-24T03:19:26;17.30;;;4.90;;
11113;SDS011;5610;52.154;9.198;2022-12-24T03:22:13;19.33;;;4.77;;
11113;SDS011;5610;52.154;9.198;2022-12-24T03:25:01;9.50;;;3.83;;
11113;SDS011;5610;52.154;9.198;2022-12-24T03:27:47;18.00;;;5.57;;
11113;SDS011;5610;52.154;9.198;2022-12-24T03:30:32;14.00;;;5.70;;
11113;SDS011;5610;52.154;9.198;2022-12-24T03:33:18;10.17;;;4.70;;
11113;SDS011;5610;52.154;9.198;2022-12-24T03:36:03;25.27;;;7.10;;
11113;SDS011;5610;52.154;9.198;2022-12-24T03:38:51;12.83;;;5.00;;
11113;SDS011;5610;52.154;9.198;2022-12-24T03:41:36;14.53;;;4.83;;
11113;SDS011;5610;52.154;9.198;2022-12-24T03:44:22;14.87;;;5.57;;
11113;SDS011;5610;52.154;9.198;2022-12-24T03:47:07;10.87;;;4.67;;
11113;SDS011;5610;52.154;9.198;2022-12-24T03:49:52;13.80;;;5.23;;
11113;SDS011;5610;52.154;9.198;2022-12-24T03:52:38;15.50;;;4.90;;
11113;SDS011;5610;52.154;9.198;2022-12-24T03:55:24;20.77;;;5.40;;
11113;SDS011;5610;52.154;9.198;2022-12-24T03:58:10;14.10;;;4.60;;
11113;SDS011;5610;52.154;9.198;2022-12-24T04:00:55;10.80;;;4.40;;
11113;SDS011;5610;52.154;9.198;2022-12-24T04:03:40;15.93;;;5.40;;
11113;SDS011;5610;52.154;9.198;2022-12-24T04:06:26;13.23;;;5.47;;
11113;SDS011;5610;52.154;9.198;2022-12-24T04:09:11;11.97;;;4.77;;
11113;SDS011;5610;52.154;9.198;2022-12-24T04:11:58;21.50;;;5.87;;
11113;SDS011;5610;52.154;9.198;2022-12-24T04:14:43;16.40;;;6.60;;
11113;SDS011;5610;52.154;9.198;2022-12-24T04:17:28;14.53;;;6.43;;
11113;SDS011;5610;52.154;9.198;2022-12-24T04:20:14;11.93;;;6.43;;
11113;SDS011;5610;52.154;9.198;2022-12-24T04:22:59;17.87;;;6.37;;
11113;SDS011;5610;52.154;9.198;2022-12-24T04:25:45;17.77;;;5.70;;
11113;SDS011;5610;52.154;9.198;2022-12-24T04:28:31;13.03;;;5.23;;
11113;SDS011;5610;52.154;9.198;2022-12-24T04:31:18;15.17;;;5.13;;
11113;SDS011;5610;52.154;9.198;2022-12-24T04:34:03;18.00;;;5.87;;
11113;SDS011;5610;52.154;9.198;2022-12-24T04:36:48;12.90;;;4.70;;
11113;SDS011;5610;52.154;9.198;2022-12-24T04:39:34;20.20;;;5.30;;
11113;SDS011;5610;52.154;9.198;2022-12-24T04:42:19;12.47;;;5.40;;
11113;SDS011;5610;52.154;9.198;2022-12-24T04:45:07;19.17;;;5.60;;
11113;SDS011;5610;52.154;9.198;2022-12-24T04:47:53;12.33;;;5.40;;
11113;SDS011;5610;52.154;9.198;2022-12-24T04:50:38;14.10;;;5.20;;
11113;SDS011;5610;52.154;9.198;2022-12-24T04:53:23;16.17;;;5.00;;
11113;SDS011;5610;52.154;9.198;2022-12-24T04:56:09;19.70;;;5.87;;
11113;SDS011;5610;52.154;9.198;2022-12-24T04:58:57;16.10;;;6.30;;
11113;SDS011;5610;52.154;9.198;2022-12-24T05:01:44;23.77;;;7.00;;
11113;SDS011;5610;52.154;9.198;2022-12-24T05:04:29;18.00;;;6.70;;
11113;SDS011;5610;52.154;9.198;2022-12-24T05:07:14;20.53;;;6.77;;
11113;SDS011;5610;52.154;9.198;2022-12-24T05:10:00;21.77;;;7.47;;
11113;SDS011;5610;52.154;9.198;2022-12-24T05:12:45;19.43;;;6.60;;
11113;SDS011;5610;52.154;9.198;2022-12-24T05:15:32;20.50;;;6.67;;
11113;SDS011;5610;52.154;9.198;2022-12-24T05:18:19;18.57;;;7.30;;
11113;SDS011;5610;52.154;9.198;2022-12-24T05:21:06;23.07;;;7.07;;
11113;SDS011;5610;52.154;9.198;2022-12-24T05:23:52;19.07;;;7.60;;
11113;SDS011;5610;52.154;9.198;2022-12-24T05:26:55;30.77;;;8.27;;
11113;SDS011;5610;52.154;9.198;2022-12-24T05:29:42;27.70;;;7.90;;
11113;SDS011;5610;52.154;9.198;2022-12-24T05:32:27;25.27;;;8.07;;
11113;SDS011;5610;52.154;9.198;2022-12-24T05:35:14;32.93;;;9.37;;
11113;SDS011;5610;52.154;9.198;2022-12-24T05:37:59;24.80;;;7.80;;
11113;SDS011;5610;52.154;9.198;2022-12-24T05:40:45;20.13;;;6.80;;
11113;SDS011;5610;52.154;9.198;2022-12-24T05:43:30;18.23;;;7.63;;
11113;SDS011;5610;52.154;9.198;2022-12-24T05:46:16;17.70;;;7.80;;
11113;SDS011;5610;52.154;9.198;2022-12-24T05:49:03;16.77;;;7.57;;
11113;SDS011;5610;52.154;9.198;2022-12-24T05:51:49;23.73;;;9.47;;
11113;SDS011;5610;52.154;9.198;2022-12-24T05:54:35;23.73;;;7.83;;
11113;SDS011;5610;52.154;9.198;2022-12-24T05:57:20;27.20;;;8.47;;
11113;SDS011;5610;52.154;9.198;2022-12-24T06:00:06;25.17;;;7.50;;
11113;SDS011;5610;52.154;9.198;2022-12-24T06:02:56;25.70;;;8.53;;
11113;SDS011;5610;52.154;9.198;2022-12-24T06:05:41;16.57;;;6.70;;
11113;SDS011;5610;52.154;9.198;2022-12-24T06:08:28;24.53;;;7.70;;
11113;SDS011;5610;52.154;9.198;2022-12-24T06:11:15;26.60;;;7.83;;
11113;SDS011;5610;52.154;9.198;2022-12-24T06:14:02;21.17;;;7.20;;
11113;SDS011;5610;52.154;9.198;2022-12-24T06:16:47;17.60;;;6.50;;
11113;SDS011;5610;52.154;9.198;2022-12-24T06:19:33;21.10;;;8.20;;
11113;SDS011;5610;52.154;9.198;2022-12-24T06:22:18;18.97;;;7.90;;
11113;SDS011;5610;52.154;9.198;2022-12-24T06:25:05;20.33;;;7.00;;
11113;SDS011;5610;52.154;9.198;2022-12-24T06:27:51;21.63;;;8.40;;
11113;SDS011;5610;52.154;9.198;2022-12-24T06:30:36;24.50;;;8.00;;
11113;SDS011;5610;52.154;9.198;2022-12-24T06:33:21;19.50;;;6.90;;
11113;SDS011;5610;52.154;9.198;2022-12-24T06:36:07;19.87;;;7.23;;
11113;SDS011;5610;52.154;9.198;2022-12-24T06:38:54;22.00;;;7.80;;
11113;SDS011;5610;52.154;9.198;2022-12-24T06:41:40;17.43;;;6.67;;
11113;SDS011;5610;52.154;9.198;2022-12-24T06:44:26;25.17;;;9.77;;
11113;SDS011;5610;52.154;9.198;2022-12-24T06:47:11;24.30;;;7.80;;
11113;SDS011;5610;52.154;9.198;2022-12-24T06:49:56;28.93;;;7.43;;
11113;SDS011;5610;52.154;9.198;2022-12-24T06:52:42;23.03;;;7.70;;
11113;SDS011;5610;52.154;9.198;2022-12-24T06:55:27;23.27;;;8.03;;
11113;SDS011;5610;52.154;9.198;2022-12-24T06:58:14;22.27;;;7.33;;
11113;SDS011;5610;52.154;9.198;2022-12-24T07:00:59;19.87;;;7.33;;
11113;SDS011;5610;52.154;9.198;2022-12-24T07:03:46;28.70;;;7.47;;
11113;SDS011;5610;52.154;9.198;2022-12-24T07:06:31;20.73;;;7.37;;
11113;SDS011;5610;52.154;9.198;2022-12-24T07:09:16;18.20;;;7.47;;
11113;SDS011;5610;52.154;9.198;2022-12-24T07:12:02;21.67;;;8.03;;
11113;SDS011;5610;52.154;9.198;2022-12-24T07:14:49;20.13;;;8.27;;
11113;SDS011;5610;52.154;9.198;2022-12-24T07:17:35;18.33;;;7.40;;
11113;SDS011;5610;52.154;9.198;2022-12-24T07:20:20;23.73;;;8.50;;
11113;SDS011;5610;52.154;9.198;2022-12-24T07:23:05;23.10;;;8.47;;
11113;SDS011;5610;52.154;9.198;2022-12-24T07:25:51;28.23;;;8.10;;
11113;SDS011;5610;52.154;9.198;2022-12-24T07:28:36;17.33;;;7.33;;
11113;SDS011;5610;52.154;9.198;2022-12-24T07:31:23;28.70;;;9.37;;
11113;SDS011;5610;52.154;9.198;2022-12-24T07:34:08;26.37;;;10.43;;
11113;SDS011;5610;52.154;9.198;2022-12-24T07:36:54;18.80;;;8.80;;
11113;SDS011;5610;52.154;9.198;2022-12-24T07:39:39;22.87;;;8.83;;
11113;SDS011;5610;52.154;9.198;2022-12-24T07:42:25;25.57;;;10.37;;
11113;SDS011;5610;52.154;9.198;2022-12-24T07:45:10;25.07;;;10.20;;
11113;SDS011;5610;52.154;9.198;2022-12-24T07:47:56;35.87;;;12.33;;
11113;SDS011;5610;52.154;9.198;2022-12-24T07:50:42;22.80;;;8.70;;
11113;SDS011;5610;52.154;9.198;2022-12-24T07:53:27;23.30;;;10.13;;
11113;SDS011;5610;52.154;9.198;2022-12-24T07:56:13;28.60;;;9.27;;
11113;SDS011;5610;52.154;9.198;2022-12-24T07:58:59;30.10;;;10.40;;
11113;SDS011;5610;52.154;9.198;2022-12-24T08:01:44;24.40;;;10.63;;
11113;SDS011;5610;52.154;9.198;2022-12-24T08:04:31;27.27;;;11.83;;
11113;SDS011;5610;52.154;9.198;2022-12-24T08:07:19;31.47;;;10.10;;
11113;SDS011;5610;52.154;9.198;2022-12-24T08:10:04;26.47;;;10.37;;
11113;SDS011;5610;52.154;9.198;2022-12-24T08:12:50;25.73;;;10.77;;
11113;SDS011;5610;52.154;9.198;2022-12-24T08:15:36;25.37;;;10.67;;
11113;SDS011;5610;52.154;9.198;2022-12-24T08:18:21;28.63;;;12.03;;
11113;SDS011;5610;52.154;9.198;2022-12-24T08:21:08;22.20;;;10.70;;
11113;SDS011;5610;52.154;9.198;2022-12-24T08:23:54;27.47;;;10.30;;
11113;SDS011;5610;52.154;9.198;2022-12-24T08:26:39;17.90;;;10.33;;
11113;SDS011;5610;52.154;9.198;2022-12-24T08:29:25;19.43;;;8.10;;
11113;SDS011;5610;52.154;9.198;2022-12-24T08:32:11;24.30;;;9.90;;
11113;SDS011;5610;52.154;9.198;2022-12-24T08:34:57;19.93;;;9.20;;
11113;SDS011;5610;52.154;9.198;2022-12-24T08:37:44;25.47;;;9.33;;
11113;SDS011;5610;52.154;9.198;2022-12-24T08:40:29;18.33;;;9.43;;
11113;SDS011;5610;52.154;9.198;2022-12-24T08:43:15;21.30;;;8.87;;
11113;SDS011;5610;52.154;9.198;2022-12-24T08:46:01;19.90;;;8.00;;
11113;SDS011;5610;52.154;9.198;2022-12-24T08:48:47;13.60;;;8.20;;
11113;SDS011;5610;52.154;9.198;2022-12-24T08:51:33;17.43;;;8.07;;
11113;SDS011;5610;52.154;9.198;2022-12-24T08:54:19;17.73;;;7.87;;
11113;SDS011;5610;52.154;9.198;2022-12-24T08:57:06;19.73;;;8.60;;
11113;SDS011;5610;52.154;9.198;2022-12-24T08:59:52;19.77;;;8.50;;
11113;SDS011;5610;52.154;9.198;2022-12-24T09:02:37;22.13;;;9.27;;
11113;SDS011;5610;52.154;9.198;2022-12-24T09:05:22;18.03;;;9.37;;
11113;SDS011;5610;52.154;9.198;2022-12-24T09:08:08;21.60;;;9.90;;
11113;SDS011;5610;52.154;9.198;2022-12-24T09:10:55;19.20;;;12.07;;
11113;SDS011;5610;52.154;9.198;2022-12-24T09:13:40;20.33;;;11.20;;
11113;SDS011;5610;52.154;9.198;2022-12-24T09:16:27;21.67;;;11.27;;
11113;SDS011;5610;52.154;9.198;2022-12-24T09:19:12;18.40;;;9.67;;
11113;SDS011;5610;52.154;9.198;2022-12-24T09:21:58;19.37;;;10.67;;
11113;SDS011;5610;52.154;9.198;2022-12-24T09:24:43;18.83;;;9.80;;
11113;SDS011;5610;52.154;9.198;2022-12-24T09:27:30;22.80;;;10.07;;
11113;SDS011;5610;52.154;9.198;2022-12-24T09:30:16;15.47;;;9.10;;
11113;SDS011;5610;52.154;9.198;2022-12-24T09:33:01;18.90;;;8.60;;
11113;SDS011;5610;52.154;9.198;2022-12-24T09:35:49;10.37;;;8.17;;
11113;SDS011;5610;52.154;9.198;2022-12-24T09:38:35;11.73;;;8.70;;
11113;SDS011;5610;52.154;9.198;2022-12-24T09:41:26;11.00;;;7.30;;
11113;SDS011;5610;52.154;9.198;2022-12-24T09:44:32;13.10;;;8.67;;
11113;SDS011;5610;52.154;9.198;2022-12-24T09:47:25;18.67;;;7.90;;
11113;SDS011;5610;52.154;9.198;2022-12-24T09:50:22;18.23;;;8.00;;
11113;SDS011;5610;52.154;9.198;2022-12-24T09:53:14;9.70;;;7.37;;
11113;SDS011;5610;52.154;9.198;2022-12-24T09:56:05;16.63;;;7.90;;
11113;SDS011;5610;52.154;9.198;2022-12-24T09:58:56;13.50;;;8.10;;
11113;SDS011;5610;52.154;9.198;2022-12-24T10:01:45;9.70;;;7.40;;
11113;SDS011;5610;52.154;9.198;2022-12-24T10:04:32;15.27;;;7.93;;
11113;SDS011;5610;52.154;9.198;2022-12-24T10:07:21;12.93;;;8.13;;
11113;SDS011;5610;52.154;9.198;2022-12-24T10:10:17;11.10;;;7.40;;
11113;SDS011;5610;52.154;9.198;2022-12-24T10:13:13;15.80;;;7.23;;
11113;SDS011;5610;52.154;9.198;2022-12-24T10:16:08;12.93;;;7.20;;
11113;SDS011;5610;52.154;9.198;2022-12-24T10:19:01;14.00;;;6.60;;
11113;SDS011;5610;52.154;9.198;2022-12-24T10:21:57;8.63;;;6.30;;
11113;SDS011;5610;52.154;9.198;2022-12-24T10:24:53;7.70;;;5.27;;
11113;SDS011;5610;52.154;9.198;2022-12-24T10:27:47;14.40;;;8.43;;
11113;SDS011;5610;52.154;9.198;2022-12-24T10:30:32;6.57;;;4.80;;
11113;SDS011;5610;52.154;9.198;2022-12-24T10:33:20;9.17;;;4.93;;
11113;SDS011;5610;52.154;9.198;2022-12-24T10:36:16;10.73;;;5.97;;
11113;SDS011;5610;52.154;9.198;2022-12-24T10:39:02;10.10;;;5.30;;
11113;SDS011;5610;52.154;9.198;2022-12-24T10:41:48;9.73;;;5.60;;
11113;SDS011;5610;52.154;9.198;2022-12-24T10:44:35;9.40;;;5.87;;
11113;SDS011;5610;52.154;9.198;2022-12-24T10:47:21;10.30;;;5.57;;
11113;SDS011;5610;52.154;9.198;2022-12-24T10:50:09;11.00;;;5.83;;
11113;SDS011;5610;52.154;9.198;2022-12-24T10:53:03;14.63;;;6.00;;
11113;SDS011;5610;52.154;9.198;2022-12-24T10:56:00;8.47;;;5.60;;
11113;SDS011;5610;52.154;9.198;2022-12-24T10:58:50;9.67;;;5.40;;
11113;SDS011;5610;52.154;9.198;2022-12-24T11:01:44;7.43;;;3.97;;
11113;SDS011;5610;52.154;9.198;2022-12-24T11:04:31;11.97;;;4.50;;
11113;SDS011;5610;52.154;9.198;2022-12-24T11:07:17;10.80;;;5.00;;
11113;SDS011;5610;52.154;9.198;2022-12-24T11:10:06;10.67;;;5.57;;
11113;SDS011;5610;52.154;9.198;2022-12-24T11:12:52;10.40;;;5.20;;
11113;SDS011;5610;52.154;9.198;2022-12-24T11:15:37;11.43;;;5.40;;
11113;SDS011;5610;52.154;9.198;2022-12-24T11:18:22;14.20;;;7.60;;
11113;SDS011;5610;52.154;9.198;2022-12-24T11:21:08;16.00;;;9.17;;
11113;SDS011;5610;52.154;9.198;2022-12-24T11:23:55;29.57;;;13.27;;
11113;SDS011;5610;52.154;9.198;2022-12-24T11:26:43;27.97;;;14.53;;
11113;SDS011;5610;52.154;9.198;2022-12-24T11:29:29;25.63;;;14.23;;
11113;SDS011;5610;52.154;9.198;2022-12-24T11:32:16;32.80;;;14.63;;
11113;SDS011;5610;52.154;9.198;2022-12-24T11:35:04;31.00;;;12.60;;
11113;SDS011;5610;52.154;9.198;2022-12-24T11:38:07;23.53;;;12.13;;
11113;SDS011;5610;52.154;9.198;2022-12-24T11:40:58;33.13;;;12.23;;
11113;SDS011;5610;52.154;9.198;2022-12-24T11:43:47;18.47;;;11.83;;
11113;SDS011;5610;52.154;9.198;2022-12-24T11:46:35;31.87;;;11.87;;
11113;SDS011;5610;52.154;9.198;2022-12-24T11:49:23;25.37;;;10.83;;
11113;SDS011;5610;52.154;9.198;2022-12-24T11:52:12;18.27;;;9.07;;
11113;SDS011;5610;52.154;9.198;2022-12-24T11:55:15;21.40;;;8.60;;
11113;SDS011;5610;52.154;9.198;2022-12-24T11:58:04;19.30;;;9.40;;
11113;SDS011;5610;52.154;9.198;2022-12-24T12:01:08;26.73;;;9.57;;
11113;SDS011;5610;52.154;9.198;2022-12-24T12:03:59;23.53;;;9.17;;
11113;SDS011;5610;52.154;9.198;2022-12-24T12:06:48;24.53;;;9.27;;
11113;SDS011;5610;52.154;9.198;2022-12-24T12:09:36;28.50;;;9.60;;
11113;SDS011;5610;52.154;9.198;2022-12-24T12:12:26;17.53;;;7.23;;
11113;SDS011;5610;52.154;9.198;2022-12-24T12:15:15;24.13;;;9.67;;
11113;SDS011;5610;52.154;9.198;2022-12-24T12:18:06;21.10;;;8.80;;
11113;SDS011;5610;52.154;9.198;2022-12-24T12:20:57;22.67;;;10.50;;
11113;SDS011;5610;52.154;9.198;2022-12-24T12:23:48;19.30;;;9.80;;
11113;SDS011;5610;52.154;9.198;2022-12-24T12:26:36;17.83;;;9.03;;
11113;SDS011;5610;52.154;9.198;2022-12-24T12:29:26;18.00;;;9.37;;
11113;SDS011;5610;52.154;9.198;2022-12-24T12:32:20;20.93;;;9.40;;
11113;SDS011;5610;52.154;9.198;2022-12-24T12:35:17;16.50;;;7.97;;
11113;SDS011;5610;52.154;9.198;2022-12-24T12:38:08;19.63;;;7.73;;
11113;SDS011;5610;52.154;9.198;2022-12-24T12:41:00;14.80;;;7.37;;
11113;SDS011;5610;52.154;9.198;2022-12-24T12:43:59;19.83;;;7.50;;
11113;SDS011;5610;52.154;9.198;2022-12-24T12:47:07;15.33;;;7.33;;
11113;SDS011;5610;52.154;9.198;2022-12-24T12:50:06;19.73;;;7.07;;
11113;SDS011;5610;52.154;9.198;2022-12-24T12:53:06;23.20;;;8.30;;
11113;SDS011;5610;52.154;9.198;2022-12-24T12:56:06;17.33;;;7.80;;
11113;SDS011;5610;52.154;9.198;2022-12-24T12:58:59;20.30;;;7.37;;
11113;SDS011;5610;52.154;9.198;2022-12-24T13:01:49;16.47;;;7.30;;
11113;SDS011;5610;52.154;9.198;2022-12-24T13:04:57;13.37;;;5.90;;
11113;SDS011;5610;52.154;9.198;2022-12-24T13:08:12;14.10;;;6.30;;
11113;SDS011;5610;52.154;9.198;2022-12-24T13:11:20;13.80;;;6.30;;
11113;SDS011;5610;52.154;9.198;2022-12-24T13:14:30;19.77;;;7.57;;
11113;SDS011;5610;52.154;9.198;2022-12-24T13:17:41;22.27;;;7.63;;
11113;SDS011;5610;52.154;9.198;2022-12-24T13:20:45;20.00;;;7.60;;
11113;SDS011;5610;52.154;9.198;2022-12-24T13:23:34;19.50;;;7.07;;
11113;SDS011;5610;52.154;9.198;2022-12-24T13:26:19;18.33;;;5.97;;
11113;SDS011;5610;52.154;9.198;2022-12-24T13:35:34;23.63;;;7.27;;
11113;SDS011;5610;52.154;9.198;2022-12-24T13:38:30;19.73;;;7.30;;
11113;SDS011;5610;52.154;9.198;2022-12-24T13:44:42;18.17;;;7.13;;
11113;SDS011;5610;52.154;9.198;2022-12-24T13:47:27;14.13;;;6.90;;
11113;SDS011;5610;52.154;9.198;2022-12-24T13:50:20;15.73;;;7.40;;
11113;SDS011;5610;52.154;9.198;2022-12-24T13:53:17;15.60;;;7.30;;
11113;SDS011;5610;52.154;9.198;2022-12-24T13:56:07;14.90;;;7.57;;
11113;SDS011;5610;52.154;9.198;2022-12-24T13:59:16;21.07;;;8.10;;
11113;SDS011;5610;52.154;9.198;2022-12-24T14:02:16;19.47;;;8.53;;
11113;SDS011;5610;52.154;9.198;2022-12-24T14:05:05;17.97;;;7.27;;
11113;SDS011;5610;52.154;9.198;2022-12-24T14:07:52;17.73;;;8.40;;
11113;SDS011;5610;52.154;9.198;2022-12-24T14:10:41;19.20;;;9.70;;
11113;SDS011;5610;52.154;9.198;2022-12-24T14:16:59;44.57;;;26.33;;
11113;SDS011;5610;52.154;9.198;2022-12-24T14:19:46;17.73;;;8.80;;
11113;SDS011;5610;52.154;9.198;2022-12-24T14:22:36;18.37;;;8.93;;
11113;SDS011;5610;52.154;9.198;2022-12-24T14:25:25;18.23;;;8.10;;
11113;SDS011;5610;52.154;9.198;2022-12-24T14:28:12;17.37;;;7.47;;
11113;SDS011;5610;52.154;9.198;2022-12-24T14:31:02;12.70;;;7.53;;
11113;SDS011;5610;52.154;9.198;2022-12-24T14:33:51;22.53;;;7.57;;
11113;SDS011;5610;52.154;9.198;2022-12-24T14:36:49;16.70;;;7.50;;
11113;SDS011;5610;52.154;9.198;2022-12-24T14:39:39;21.10;;;6.97;;
11113;SDS011;5610;52.154;9.198;2022-12-24T14:42:29;17.53;;;7.07;;
11113;SDS011;5610;52.154;9.198;2022-12-24T14:45:25;19.30;;;7.27;;
11113;SDS011;5610;52.154;9.198;2022-12-24T14:48:15;17.60;;;7.27;;
11113;SDS011;5610;52.154;9.198;2022-12-24T14:51:11;17.80;;;7.40;;
11113;SDS011;5610;52.154;9.198;2022-12-24T14:54:07;12.93;;;5.93;;
11113;SDS011;5610;52.154;9.198;2022-12-24T14:57:11;13.23;;;7.27;;
11113;SDS011;5610;52.154;9.198;2022-12-24T14:59:58;15.97;;;7.20;;
11113;SDS011;5610;52.154;9.198;2022-12-24T15:02:45;16.07;;;6.77;;
11113;SDS011;5610;52.154;9.198;2022-12-24T15:05:31;15.80;;;6.70;;
11113;SDS011;5610;52.154;9.198;2022-12-24T15:08:18;14.50;;;7.60;;
11113;SDS011;5610;52.154;9.198;2022-12-24T15:11:07;17.43;;;6.90;;
11113;SDS011;5610;52.154;9.198;2022-12-24T15:13:58;14.40;;;6.10;;
11113;SDS011;5610;52.154;9.198;2022-12-24T15:16:47;20.03;;;6.80;;
11113;SDS011;5610;52.154;9.198;2022-12-24T15:19:38;14.30;;;7.13;;
11113;SDS011;5610;52.154;9.198;2022-12-24T15:22:26;21.13;;;8.80;;
11113;SDS011;5610;52.154;9.198;2022-12-24T15:25:20;22.53;;;11.40;;
11113;SDS011;5610;52.154;9.198;2022-12-24T15:28:13;30.83;;;14.40;;
11113;SDS011;5610;52.154;9.198;2022-12-24T15:31:03;24.83;;;16.43;;
11113;SDS011;5610;52.154;9.198;2022-12-24T15:33:52;23.93;;;10.50;;
11113;SDS011;5610;52.154;9.198;2022-12-24T15:36:38;23.73;;;8.73;;
11113;SDS011;5610;52.154;9.198;2022-12-24T15:39:24;24.93;;;10.40;;
11113;SDS011;5610;52.154;9.198;2022-12-24T15:42:11;22.57;;;10.23;;
11113;SDS011;5610;52.154;9.198;2022-12-24T15:45:03;16.70;;;8.90;;
11113;SDS011;5610;52.154;9.198;2022-12-24T15:47:52;19.20;;;11.30;;
11113;SDS011;5610;52.154;9.198;2022-12-24T15:50:42;17.93;;;9.30;;
11113;SDS011;5610;52.154;9.198;2022-12-24T15:53:29;18.83;;;8.20;;
11113;SDS011;5610;52.154;9.198;2022-12-24T15:56:26;15.90;;;9.57;;
11113;SDS011;5610;52.154;9.198;2022-12-24T15:59:22;19.70;;;7.70;;
11113;SDS011;5610;52.154;9.198;2022-12-24T16:02:33;21.00;;;9.07;;
11113;SDS011;5610;52.154;9.198;2022-12-24T16:05:31;17.93;;;9.43;;
11113;SDS011;5610;52.154;9.198;2022-12-24T16:08:22;22.67;;;8.43;;
11113;SDS011;5610;52.154;9.198;2022-12-24T16:11:14;25.03;;;12.87;;
11113;SDS011;5610;52.154;9.198;2022-12-24T16:14:03;20.20;;;9.03;;
11113;SDS011;5610;52.154;9.198;2022-12-24T16:16:56;22.73;;;10.37;;
11113;SDS011;5610;52.154;9.198;2022-12-24T16:19:41;24.93;;;9.57;;
11113;SDS011;5610;52.154;9.198;2022-12-24T16:22:32;24.23;;;9.10;;
11113;SDS011;5610;52.154;9.198;2022-12-24T16:25:22;26.27;;;10.83;;
11113;SDS011;5610;52.154;9.198;2022-12-24T16:28:09;23.23;;;11.17;;
11113;SDS011;5610;52.154;9.198;2022-12-24T16:30:56;21.43;;;8.40;;
11113;SDS011;5610;52.154;9.198;2022-12-24T16:33:42;26.83;;;10.30;;
11113;SDS011;5610;52.154;9.198;2022-12-24T16:36:28;17.43;;;10.23;;
11113;SDS011;5610;52.154;9.198;2022-12-24T16:39:15;20.93;;;9.60;;
11113;SDS011;5610;52.154;9.198;2022-12-24T16:42:12;26.73;;;11.33;;
11113;SDS011;5610;52.154;9.198;2022-12-24T16:45:16;24.43;;;10.03;;
11113;SDS011;5610;52.154;9.198;2022-12-24T16:48:01;23.63;;;9.70;;
11113;SDS011;5610;52.154;9.198;2022-12-24T16:50:50;21.33;;;11.73;;
11113;SDS011;5610;52.154;9.198;2022-12-24T16:53:37;30.93;;;10.73;;
11113;SDS011;5610;52.154;9.198;2022-12-24T16:56:22;30.33;;;12.50;;
11113;SDS011;5610;52.154;9.198;2022-12-24T16:59:08;20.80;;;9.80;;
11113;SDS011;5610;52.154;9.198;2022-12-24T17:02:00;23.20;;;10.90;;
11113;SDS011;5610;52.154;9.198;2022-12-24T17:04:45;26.47;;;12.17;;
11113;SDS011;5610;52.154;9.198;2022-12-24T17:07:32;22.73;;;10.90;;
11113;SDS011;5610;52.154;9.198;2022-12-24T17:10:18;22.30;;;10.00;;
11113;SDS011;5610;52.154;9.198;2022-12-24T17:13:03;26.90;;;11.57;;